Time;durP1;ratioP1;P1;durP2;ratioP2;P2;SDS_P1;SDS_P2;PMS_P1;PMS_P2;Temp;Humidity;BMP_temperature;BMP_pressure;BME280_temperature;BME280_humidity;BME280_pressure;Samples;Min_cycle;Max_cycle;Signal;HPM_P1;HPM_P2
2024/01/05 00:02:22;;;;;;;13.25;2.78;;;7.60;99.90;;;;;;5016546;28;20037;-62
2024/01/05 00:04:48;;;;;;;12.65;3.25;;;7.70;99.90;;;;;;5016737;28;20033;-62
2024/01/05 00:07:13;;;;;;;10.30;3.42;;;7.70;99.90;;;;;;5017342;28;20065;-62
2024/01/05 00:09:39;;;;;;;16.58;3.20;;;7.90;99.90;;;;;;5017253;28;20029;-62
2024/01/05 00:12:05;;;;;;;17.17;3.22;;;8.00;99.90;;;;;;5017748;28;20026;-62
2024/01/05 00:14:30;;;;;;;10.02;2.38;;;7.90;99.90;;;;;;5017739;28;20018;-62
2024/01/05 00:16:59;;;;;;;10.25;2.38;;;7.90;99.90;;;;;;5016872;28;20065;-61
2024/01/05 00:19:24;;;;;;;10.35;2.53;;;8.00;99.90;;;;;;5017367;28;20048;-62
2024/01/05 00:21:51;;;;;;;18.52;3.03;;;7.90;99.90;;;;;;5017317;28;20026;-61
2024/01/05 00:24:16;;;;;;;13.13;2.55;;;7.90;99.90;;;;;;5016866;28;20029;-69
2024/01/05 00:26:43;;;;;;;12.68;2.40;;;7.90;99.90;;;;;;5016647;28;20112;-69
2024/01/05 00:29:08;;;;;;;5.07;2.30;;;7.90;99.90;;;;;;5017160;28;20025;-68
2024/01/05 00:31:34;;;;;;;16.83;3.13;;;8.10;99.90;;;;;;5016435;28;20026;-69
2024/01/05 00:34:00;;;;;;;10.95;2.47;;;8.30;99.90;;;;;;5016786;28;20085;-69
2024/01/05 00:36:26;;;;;;;20.45;3.53;;;8.40;99.90;;;;;;5017268;28;20022;-69
2024/01/05 00:38:51;;;;;;;8.10;2.83;;;8.40;99.90;;;;;;5016572;28;20029;-69
2024/01/05 00:41:17;;;;;;;12.35;4.13;;;8.40;99.90;;;;;;5016224;28;20129;-69
2024/01/05 00:43:42;;;;;;;20.00;3.65;;;8.20;99.90;;;;;;5017333;28;20029;-61
2024/01/05 00:46:08;;;;;;;21.00;3.50;;;8.30;99.90;;;;;;5018442;28;20026;-62
2024/01/05 00:48:34;;;;;;;14.73;2.70;;;8.40;99.90;;;;;;5020169;28;20026;-62
2024/01/05 00:51:00;;;;;;;17.70;3.00;;;8.50;99.90;;;;;;5020987;28;20057;-61
2024/01/05 00:53:25;;;;;;;13.50;4.32;;;8.20;99.90;;;;;;5020118;28;20120;-61
2024/01/05 00:55:50;;;;;;;17.13;3.85;;;8.30;99.90;;;;;;5020942;28;20067;-61
2024/01/05 00:58:16;;;;;;;12.32;4.45;;;8.20;99.90;;;;;;5020034;28;20026;-62
2024/01/05 01:00:42;;;;;;;17.15;4.60;;;8.20;99.90;;;;;;5021152;28;20030;-61
2024/01/05 01:03:07;;;;;;;8.38;3.08;;;8.20;99.90;;;;;;5020154;28;20041;-62
2024/01/05 01:05:33;;;;;;;12.07;3.10;;;8.30;99.90;;;;;;5019809;28;20029;-61
2024/01/05 01:07:58;;;;;;;15.02;3.30;;;8.20;99.90;;;;;;5021101;28;20033;-62
2024/01/05 01:10:24;;;;;;;18.65;3.55;;;8.30;99.90;;;;;;5019854;28;20026;-69
2024/01/05 01:12:49;;;;;;;16.30;3.40;;;8.30;99.90;;;;;;5020516;28;20052;-69
2024/01/05 01:15:15;;;;;;;15.20;3.90;;;8.40;99.90;;;;;;5019825;28;20021;-69
2024/01/05 01:17:40;;;;;;;12.20;3.10;;;8.30;99.90;;;;;;5020488;28;20022;-69
2024/01/05 01:20:06;;;;;;;11.60;3.50;;;8.30;99.90;;;;;;5020530;28;20030;-69
2024/01/05 01:22:32;;;;;;;15.88;3.72;;;8.40;99.90;;;;;;5020226;28;20026;-69
2024/01/05 01:24:57;;;;;;;13.90;3.63;;;8.40;99.90;;;;;;5020588;28;20036;-69
2024/01/05 01:27:23;;;;;;;14.77;3.63;;;8.50;99.90;;;;;;5019600;28;20026;-69
2024/01/05 01:29:48;;;;;;;8.77;3.13;;;8.60;99.90;;;;;;5020199;28;20026;-69
2024/01/05 01:32:14;;;;;;;10.68;3.47;;;8.40;99.90;;;;;;5020340;28;20029;-69
2024/01/05 01:34:39;;;;;;;9.32;3.10;;;8.40;99.90;;;;;;5019328;28;20022;-69
2024/01/05 01:37:05;;;;;;;16.38;3.00;;;8.40;99.90;;;;;;5019297;28;20026;-68
2024/01/05 01:39:31;;;;;;;11.63;2.95;;;8.20;99.90;;;;;;5020327;28;20025;-69
2024/01/05 01:41:57;;;;;;;10.85;2.45;;;8.10;99.90;;;;;;5020009;28;20080;-68
2024/01/05 01:44:23;;;;;;;8.13;2.60;;;8.10;99.90;;;;;;5020292;28;20101;-69
2024/01/05 01:46:51;;;;;;;12.75;2.83;;;8.30;99.90;;;;;;5020498;28;20114;-68
2024/01/05 01:49:17;;;;;;;14.40;3.92;;;8.30;99.90;;;;;;5019742;28;20026;-69
2024/01/05 01:51:43;;;;;;;12.95;2.38;;;8.10;99.90;;;;;;5019425;28;20057;-69
2024/01/05 01:54:10;;;;;;;8.10;2.75;;;8.20;99.90;;;;;;5020357;28;20022;-69
2024/01/05 01:56:37;;;;;;;9.20;2.72;;;8.20;99.90;;;;;;5019522;28;20021;-70
2024/01/05 01:59:04;;;;;;;16.33;3.28;;;8.30;99.90;;;;;;5019433;28;20029;-69
2024/01/05 02:01:30;;;;;;;9.80;2.28;;;8.30;99.90;;;;;;5019020;28;20053;-69
2024/01/05 02:03:56;;;;;;;10.48;2.55;;;8.30;99.90;;;;;;5019765;28;20030;-69
2024/01/05 02:06:21;;;;;;;8.82;2.15;;;8.50;99.90;;;;;;5019608;28;20030;-69
2024/01/05 02:08:47;;;;;;;14.35;2.28;;;8.60;99.90;;;;;;5018696;28;20049;-69
2024/01/05 02:11:13;;;;;;;10.23;2.00;;;8.70;99.90;;;;;;5019579;28;20018;-68
2024/01/05 02:13:40;;;;;;;15.85;3.13;;;8.70;99.90;;;;;;5018671;28;20018;-69
2024/01/05 02:16:05;;;;;;;12.35;2.40;;;8.70;99.90;;;;;;5018577;28;20033;-69
2024/01/05 02:18:31;;;;;;;4.30;2.03;;;8.70;99.90;;;;;;5018402;28;20108;-69
2024/01/05 02:20:59;;;;;;;8.02;2.35;;;8.70;99.90;;;;;;5018719;28;20022;-68
2024/01/05 02:23:26;;;;;;;8.52;2.45;;;8.50;99.90;;;;;;5019423;28;20040;-69
2024/01/05 02:25:54;;;;;;;17.02;2.10;;;8.40;99.90;;;;;;5018670;28;20022;-69
2024/01/05 02:28:19;;;;;;;8.75;1.85;;;8.40;99.90;;;;;;5019231;28;20025;-68
2024/01/05 02:30:46;;;;;;;8.13;2.70;;;8.50;99.90;;;;;;5019102;28;20029;-69
2024/01/05 02:33:11;;;;;;;10.75;2.20;;;8.50;99.90;;;;;;5018945;28;20076;-69
2024/01/05 02:35:37;;;;;;;9.43;2.58;;;8.40;99.90;;;;;;5019119;28;20030;-68
2024/01/05 02:38:02;;;;;;;9.10;2.60;;;8.30;99.90;;;;;;5019013;28;20055;-68
2024/01/05 02:40:28;;;;;;;7.40;2.58;;;8.30;99.90;;;;;;5018113;28;20030;-68
2024/01/05 02:42:54;;;;;;;6.82;2.60;;;8.30;99.90;;;;;;5018901;28;20029;-69
2024/01/05 02:45:20;;;;;;;19.70;2.75;;;8.20;99.90;;;;;;5018808;28;20081;-68
2024/01/05 02:47:50;;;;;;;6.25;2.03;;;7.90;99.90;;;;;;5019324;28;20025;-68
2024/01/05 02:50:16;;;;;;;16.67;3.05;;;8.00;99.90;;;;;;5018634;28;20034;-68
2024/01/05 02:52:42;;;;;;;19.95;2.72;;;8.10;99.90;;;;;;5018676;28;20026;-68
2024/01/05 02:55:10;;;;;;;13.40;2.80;;;8.00;99.90;;;;;;5018811;28;20080;-69
2024/01/05 02:57:36;;;;;;;8.02;2.00;;;7.80;99.90;;;;;;5018669;28;20026;-68
2024/01/05 03:00:03;;;;;;;10.02;2.80;;;7.80;99.90;;;;;;5018555;28;20029;-68
2024/01/05 03:02:28;;;;;;;9.75;2.17;;;8.00;99.90;;;;;;5018893;28;20030;-62
2024/01/05 03:04:54;;;;;;;5.25;2.10;;;8.10;99.90;;;;;;5017661;28;20026;-62
2024/01/05 03:07:19;;;;;;;10.68;2.25;;;8.10;99.90;;;;;;5017689;28;20045;-62
2024/01/05 03:09:45;;;;;;;8.07;1.80;;;8.20;99.90;;;;;;5017313;28;20030;-62
2024/01/05 03:12:11;;;;;;;8.43;2.45;;;8.30;99.90;;;;;;5018083;28;20029;-62
2024/01/05 03:14:36;;;;;;;8.15;2.33;;;8.50;99.90;;;;;;5017488;28;20029;-62
2024/01/05 03:17:02;;;;;;;7.85;2.50;;;8.50;99.90;;;;;;5017668;28;20033;-62
2024/01/05 03:19:28;;;;;;;9.50;2.83;;;8.60;99.90;;;;;;5018438;28;20026;-62
2024/01/05 03:21:54;;;;;;;10.30;2.75;;;8.60;99.90;;;;;;5017563;28;20080;-62
2024/01/05 03:24:20;;;;;;;10.75;2.58;;;8.60;99.90;;;;;;5017305;28;20032;-62
2024/01/05 03:26:45;;;;;;;12.77;2.17;;;8.50;99.90;;;;;;5018167;28;20125;-62
2024/01/05 03:29:11;;;;;;;16.05;2.25;;;8.60;99.90;;;;;;5017438;28;20025;-62
2024/01/05 03:31:37;;;;;;;7.43;2.13;;;8.60;99.90;;;;;;5017427;28;20029;-62
2024/01/05 03:34:02;;;;;;;8.70;2.47;;;8.60;99.90;;;;;;5017475;28;20098;-62
2024/01/05 03:36:28;;;;;;;9.85;2.60;;;8.60;99.90;;;;;;5017541;28;20028;-62
2024/01/05 03:38:54;;;;;;;8.48;2.22;;;8.30;99.90;;;;;;5017261;28;20033;-62
2024/01/05 03:41:20;;;;;;;9.05;2.65;;;8.10;99.90;;;;;;5017523;28;20064;-62
2024/01/05 03:43:45;;;;;;;8.90;1.73;;;8.10;99.90;;;;;;5017242;28;20125;-62
2024/01/05 03:46:12;;;;;;;9.95;2.30;;;8.00;99.90;;;;;;5017268;28;20056;-62
2024/01/05 03:48:39;;;;;;;8.48;2.13;;;8.00;99.90;;;;;;5001435;28;20062;-62
2024/01/05 03:51:05;;;;;;;8.07;2.63;;;8.00;99.90;;;;;;5016904;28;20088;-68
2024/01/05 03:53:30;;;;;;;8.93;2.05;;;8.10;99.90;;;;;;5017659;28;20022;-69
2024/01/05 03:56:00;;;;;;;14.93;2.72;;;8.10;99.90;;;;;;5017669;28;20022;-69
2024/01/05 03:58:26;;;;;;;9.90;2.50;;;8.10;99.90;;;;;;5017017;28;20030;-68
2024/01/05 04:00:51;;;;;;;6.25;1.80;;;8.00;99.90;;;;;;5017509;28;20049;-68
2024/01/05 04:03:17;;;;;;;10.95;2.55;;;8.10;99.90;;;;;;5016576;28;20042;-69
2024/01/05 04:05:43;;;;;;;7.55;1.52;;;8.10;99.90;;;;;;5016584;28;20069;-68
2024/01/05 04:08:09;;;;;;;6.78;1.67;;;8.20;99.90;;;;;;5016599;28;20026;-69
2024/01/05 04:10:35;;;;;;;6.85;2.05;;;8.20;99.90;;;;;;5016442;28;20026;-68
2024/01/05 04:13:01;;;;;;;9.15;2.08;;;8.00;99.90;;;;;;5017378;28;20018;-69
2024/01/05 04:15:27;;;;;;;5.85;1.75;;;8.00;99.90;;;;;;5016765;28;20113;-68
2024/01/05 04:17:53;;;;;;;23.05;2.75;;;8.00;99.90;;;;;;5016762;28;20022;-68
2024/01/05 04:20:19;;;;;;;8.23;1.90;;;7.70;99.90;;;;;;5016042;28;20036;-68
2024/01/05 04:22:44;;;;;;;8.23;1.73;;;7.90;99.90;;;;;;5016431;28;20049;-69
2024/01/05 04:25:10;;;;;;;8.80;1.98;;;8.00;99.90;;;;;;5016415;28;20022;-68
2024/01/05 04:27:35;;;;;;;8.07;1.90;;;8.00;99.90;;;;;;5016298;28;20088;-69
2024/01/05 04:30:03;;;;;;;14.65;2.13;;;8.20;99.90;;;;;;5016241;28;20048;-69
2024/01/05 04:32:29;;;;;;;7.45;2.10;;;8.20;99.90;;;;;;5017058;28;20037;-69
2024/01/05 04:34:54;;;;;;;7.60;2.10;;;8.30;99.90;;;;;;5016676;28;20026;-68
2024/01/05 04:37:20;;;;;;;10.73;2.30;;;8.30;99.90;;;;;;5016137;28;20065;-68
2024/01/05 04:39:45;;;;;;;7.10;1.60;;;8.30;99.90;;;;;;5017097;28;20057;-69
2024/01/05 04:42:12;;;;;;;8.32;1.95;;;8.20;99.90;;;;;;5016506;28;20029;-69
2024/01/05 04:44:37;;;;;;;13.15;1.70;;;8.10;99.90;;;;;;5017093;28;20025;-69
2024/01/05 04:47:03;;;;;;;5.65;1.63;;;8.20;99.90;;;;;;5017073;28;20075;-62
2024/01/05 04:49:29;;;;;;;7.40;2.05;;;8.30;99.90;;;;;;5016422;28;20052;-62
2024/01/05 04:51:54;;;;;;;4.68;1.60;;;8.20;99.90;;;;;;5017096;28;20026;-62
2024/01/05 04:54:20;;;;;;;8.65;1.67;;;8.20;99.90;;;;;;5016185;28;20022;-62
2024/01/05 04:56:45;;;;;;;7.88;2.60;;;8.30;99.90;;;;;;5016076;28;20026;-68
2024/01/05 04:59:11;;;;;;;9.23;1.85;;;8.30;99.90;;;;;;5016292;28;20030;-61
2024/01/05 05:01:37;;;;;;;8.27;2.40;;;8.40;99.90;;;;;;5016386;28;20069;-61
2024/01/05 05:04:02;;;;;;;8.30;1.77;;;8.40;99.90;;;;;;5016235;28;20026;-61
2024/01/05 05:06:28;;;;;;;8.20;2.05;;;8.40;99.90;;;;;;5016185;28;20030;-62
2024/01/05 05:08:54;;;;;;;6.93;1.60;;;8.40;99.90;;;;;;5015913;28;20025;-61
2024/01/05 05:11:20;;;;;;;5.60;2.00;;;8.40;99.90;;;;;;5016134;28;20067;-62
2024/01/05 05:13:45;;;;;;;11.60;1.75;;;8.40;99.90;;;;;;5016767;28;20032;-62
2024/01/05 05:16:11;;;;;;;11.48;2.22;;;8.40;99.90;;;;;;5016119;28;20026;-62
2024/01/05 05:18:36;;;;;;;11.10;1.95;;;8.40;99.90;;;;;;5016808;28;20037;-61
2024/01/05 05:21:03;;;;;;;11.30;2.30;;;8.20;99.90;;;;;;5016850;28;20022;-61
2024/01/05 05:23:29;;;;;;;11.98;1.92;;;8.10;99.90;;;;;;5016432;28;20018;-61
2024/01/05 05:25:54;;;;;;;5.57;1.80;;;8.10;99.90;;;;;;5015812;28;20022;-61
2024/01/05 05:28:20;;;;;;;16.02;2.08;;;8.10;99.90;;;;;;5016610;28;20033;-61
2024/01/05 05:30:45;;;;;;;6.18;1.80;;;7.90;99.90;;;;;;5015996;28;20038;-61
2024/01/05 05:33:11;;;;;;;9.95;1.52;;;7.70;99.90;;;;;;5018817;28;20073;-61
2024/01/05 05:35:36;;;;;;;4.75;1.55;;;7.60;99.90;;;;;;5019699;28;20068;-61
2024/01/05 05:38:03;;;;;;;7.35;1.92;;;7.70;99.90;;;;;;5019490;28;20025;-62
2024/01/05 05:40:29;;;;;;;7.93;1.75;;;7.50;99.90;;;;;;5019254;28;20033;-62
2024/01/05 05:42:55;;;;;;;11.38;2.22;;;7.50;99.90;;;;;;5019266;28;20028;-61
2024/01/05 05:45:21;;;;;;;6.93;2.30;;;7.30;99.90;;;;;;5019096;28;20121;-61
2024/01/05 05:47:46;;;;;;;8.48;3.05;;;7.40;99.90;;;;;;5019222;28;20057;-62
2024/01/05 05:50:13;;;;;;;6.25;1.23;;;7.50;99.90;;;;;;5019721;28;20018;-61
2024/01/05 05:52:39;;;;;;;9.40;1.80;;;7.60;99.90;;;;;;5019249;28;20022;-61
2024/01/05 05:55:06;;;;;;;10.18;3.08;;;7.40;99.90;;;;;;5019176;28;20022;-61
2024/01/05 05:57:32;;;;;;;5.80;1.90;;;7.10;99.90;;;;;;5018840;28;20089;-61
2024/01/05 05:59:58;;;;;;;13.45;1.95;;;7.20;99.90;;;;;;5019746;28;20114;-61
2024/01/05 06:02:24;;;;;;;8.35;1.63;;;7.10;99.90;;;;;;5018636;28;20116;-62
2024/01/05 06:04:50;;;;;;;9.52;2.45;;;7.10;99.90;;;;;;5018830;28;20061;-61
2024/01/05 06:07:16;;;;;;;3.83;1.50;;;7.10;99.90;;;;;;5020105;28;20033;-61
2024/01/05 06:09:42;;;;;;;8.05;1.65;;;7.20;99.90;;;;;;5019644;28;20028;-61
2024/01/05 06:12:09;;;;;;;5.93;1.58;;;7.20;99.90;;;;;;5018833;28;20105;-62
2024/01/05 06:14:35;;;;;;;8.00;1.85;;;7.50;99.90;;;;;;5019689;28;20020;-62
2024/01/05 06:17:01;;;;;;;10.88;2.22;;;7.70;99.90;;;;;;5019389;28;20018;-62
2024/01/05 06:19:27;;;;;;;14.27;3.28;;;7.60;99.90;;;;;;5018601;28;20026;-62
2024/01/05 06:21:52;;;;;;;9.50;1.80;;;7.70;99.90;;;;;;5019694;28;20029;-61
2024/01/05 06:24:18;;;;;;;10.15;1.58;;;7.70;99.90;;;;;;5019366;28;20048;-62
2024/01/05 06:26:43;;;;;;;7.15;1.92;;;7.60;99.90;;;;;;5018463;28;20044;-61
2024/01/05 06:29:09;;;;;;;8.65;2.25;;;7.60;99.90;;;;;;5018232;28;20101;-61
2024/01/05 06:31:34;;;;;;;5.10;2.22;;;7.60;99.90;;;;;;5018217;28;20014;-61
2024/01/05 06:34:00;;;;;;;9.50;1.55;;;7.70;99.90;;;;;;5019412;28;20066;-62
2024/01/05 06:36:25;;;;;;;14.07;2.15;;;7.90;99.90;;;;;;5018215;28;20108;-62
2024/01/05 06:38:51;;;;;;;8.82;1.70;;;8.00;99.90;;;;;;5018178;28;20076;-61
2024/01/05 06:41:16;;;;;;;5.28;1.98;;;8.00;99.90;;;;;;5018685;28;20022;-61
2024/01/05 06:43:42;;;;;;;9.70;2.03;;;8.00;99.90;;;;;;5017194;28;20120;-61
2024/01/05 06:46:07;;;;;;;14.07;2.20;;;7.90;99.90;;;;;;5019232;28;20032;-62
2024/01/05 06:48:33;;;;;;;9.18;2.47;;;7.80;99.90;;;;;;5018887;28;20022;-62
2024/01/05 06:50:59;;;;;;;5.43;2.40;;;7.80;99.90;;;;;;5018668;28;20061;-61
2024/01/05 06:53:25;;;;;;;7.93;1.92;;;7.70;99.90;;;;;;5017992;28;20045;-61
2024/01/05 06:55:50;;;;;;;19.27;3.55;;;7.70;99.90;;;;;;5018672;28;20026;-61
2024/01/05 06:58:16;;;;;;;6.15;2.17;;;7.70;99.90;;;;;;5017791;28;20036;-61
2024/01/05 07:00:42;;;;;;;8.13;2.08;;;7.70;99.90;;;;;;5018579;28;20083;-61
2024/01/05 07:03:08;;;;;;;5.57;1.75;;;7.70;99.90;;;;;;5018801;28;20034;-63
2024/01/05 07:05:33;;;;;;;10.60;2.08;;;7.80;99.90;;;;;;5018639;28;20049;-61
2024/01/05 07:07:59;;;;;;;12.27;2.03;;;7.90;99.90;;;;;;5017646;28;20088;-61
2024/01/05 07:10:24;;;;;;;7.00;1.90;;;7.90;99.90;;;;;;5018366;28;20081;-62
2024/01/05 07:12:50;;;;;;;10.52;3.03;;;7.90;99.90;;;;;;5018413;28;20021;-61
2024/01/05 07:15:15;;;;;;;6.20;1.90;;;7.90;99.90;;;;;;5018652;28;20033;-61
2024/01/05 07:17:43;;;;;;;13.38;2.53;;;7.90;99.90;;;;;;5018276;28;20014;-61
2024/01/05 07:20:11;;;;;;;9.23;2.35;;;7.90;99.90;;;;;;5018279;28;20072;-61
2024/01/05 07:22:37;;;;;;;7.45;2.10;;;7.90;99.90;;;;;;5017948;28;20030;-62
2024/01/05 07:25:03;;;;;;;5.03;2.28;;;7.90;99.90;;;;;;5018276;28;20032;-62
2024/01/05 07:27:29;;;;;;;11.88;2.20;;;8.00;99.90;;;;;;5018133;28;20033;-62
2024/01/05 07:29:55;;;;;;;6.05;2.08;;;7.90;99.90;;;;;;5017444;28;20026;-62
2024/01/05 07:32:21;;;;;;;12.07;3.00;;;8.00;99.90;;;;;;5018120;28;20101;-62
2024/01/05 07:34:46;;;;;;;14.50;2.40;;;8.00;99.90;;;;;;5017441;28;20057;-62
2024/01/05 07:37:12;;;;;;;7.53;2.13;;;8.00;99.90;;;;;;5018376;28;20101;-61
2024/01/05 07:39:38;;;;;;;8.27;2.00;;;8.00;99.90;;;;;;5018472;28;20103;-62
2024/01/05 07:42:04;;;;;;;7.00;2.50;;;8.10;99.90;;;;;;5016917;28;20021;-61
2024/01/05 07:44:30;;;;;;;7.70;2.13;;;7.90;99.90;;;;;;5018195;28;20026;-61
2024/01/05 07:46:56;;;;;;;10.77;3.00;;;7.90;99.90;;;;;;5017210;28;20026;-61
2024/01/05 07:49:21;;;;;;;11.30;2.97;;;7.90;99.90;;;;;;5017202;28;20041;-61
2024/01/05 07:51:47;;;;;;;9.88;2.40;;;8.00;99.90;;;;;;5017674;28;20093;-61
2024/01/05 07:54:12;;;;;;;11.98;2.35;;;7.90;99.90;;;;;;5017669;28;20040;-61
2024/01/05 07:56:38;;;;;;;7.57;1.83;;;8.00;99.90;;;;;;5016541;28;20025;-61
2024/01/05 07:59:04;;;;;;;13.43;3.15;;;8.00;99.90;;;;;;5017646;28;20029;-61
2024/01/05 08:01:30;;;;;;;8.00;1.80;;;7.90;99.90;;;;;;5017744;28;20053;-61
2024/01/05 08:03:55;;;;;;;9.02;2.53;;;7.90;99.90;;;;;;5017599;28;20030;-61
2024/01/05 08:06:21;;;;;;;9.68;2.30;;;8.00;99.90;;;;;;5016602;28;20041;-61
2024/01/05 08:08:47;;;;;;;9.77;2.08;;;8.00;99.90;;;;;;5017643;28;20034;-61
2024/01/05 08:11:14;;;;;;;11.63;2.78;;;8.10;99.90;;;;;;5016487;28;20080;-62
2024/01/05 08:13:43;;;;;;;11.40;2.47;;;7.90;99.90;;;;;;5017350;28;20018;-62
2024/01/05 08:16:09;;;;;;;10.57;2.15;;;7.90;99.90;;;;;;5017299;28;20030;-61
2024/01/05 08:18:36;;;;;;;7.47;2.22;;;7.90;99.90;;;;;;5017452;28;20025;-62
2024/01/05 08:21:02;;;;;;;10.13;2.75;;;7.90;99.90;;;;;;5016489;28;20029;-61
2024/01/05 08:23:28;;;;;;;8.88;2.22;;;8.00;99.90;;;;;;5017488;28;20053;-61
2024/01/05 08:25:54;;;;;;;3.97;2.13;;;8.10;99.90;;;;;;5017208;28;20025;-61
2024/01/05 08:28:19;;;;;;;5.65;1.73;;;8.20;99.90;;;;;;5016197;28;20026;-61
2024/01/05 08:30:45;;;;;;;13.65;2.33;;;8.20;99.90;;;;;;5016371;28;20030;-61
2024/01/05 08:33:10;;;;;;;8.38;2.10;;;8.20;99.90;;;;;;5016264;28;20033;-68
2024/01/05 08:35:36;;;;;;;6.95;1.80;;;8.20;99.90;;;;;;5017394;28;20057;-69
2024/01/05 08:38:05;;;;;;;12.77;2.38;;;8.30;99.90;;;;;;5017366;28;20022;-68
2024/01/05 08:40:30;;;;;;;4.25;2.08;;;8.40;99.90;;;;;;5017398;28;20030;-69
2024/01/05 08:42:57;;;;;;;5.65;2.10;;;8.30;99.90;;;;;;5016099;28;20108;-69
2024/01/05 08:45:22;;;;;;;5.25;1.70;;;8.30;99.90;;;;;;5017278;28;20022;-69
2024/01/05 08:47:48;;;;;;;8.48;2.30;;;8.40;99.90;;;;;;5016561;28;20076;-69
2024/01/05 08:50:16;;;;;;;6.70;2.40;;;8.30;99.90;;;;;;5016838;28;20030;-68
2024/01/05 08:52:43;;;;;;;11.93;2.15;;;8.30;99.90;;;;;;5017549;28;20018;-69
2024/01/05 08:55:09;;;;;;;4.80;1.88;;;8.30;99.90;;;;;;5016929;28;20029;-69
2024/01/05 08:57:35;;;;;;;7.22;1.80;;;8.30;99.90;;;;;;5017005;28;20022;-68
2024/01/05 09:00:01;;;;;;;6.60;1.80;;;8.30;99.90;;;;;;5017347;28;20029;-68
2024/01/05 09:02:26;;;;;;;6.03;2.17;;;8.40;99.90;;;;;;5016393;28;20038;-68
2024/01/05 09:04:52;;;;;;;5.13;2.08;;;8.40;99.90;;;;;;5016965;28;20117;-69
2024/01/05 09:07:17;;;;;;;5.70;2.40;;;8.40;99.90;;;;;;5018083;28;20062;-68
2024/01/05 09:09:43;;;;;;;11.73;2.60;;;8.40;99.90;;;;;;5020657;28;20109;-69
2024/01/05 09:12:09;;;;;;;6.78;2.70;;;8.50;99.90;;;;;;5019797;28;20026;-69
2024/01/05 09:14:36;;;;;;;7.72;2.28;;;8.40;99.90;;;;;;5019761;28;20068;-69
2024/01/05 09:17:03;;;;;;;5.95;2.25;;;8.50;99.90;;;;;;5019731;28;20022;-68
2024/01/05 09:19:29;;;;;;;7.00;2.60;;;8.60;99.90;;;;;;5020643;28;20037;-68
2024/01/05 09:21:55;;;;;;;9.60;2.78;;;8.80;99.90;;;;;;5019484;28;20022;-68
2024/01/05 09:24:20;;;;;;;9.60;2.90;;;8.80;99.90;;;;;;5020340;28;20030;-68
2024/01/05 09:26:47;;;;;;;6.82;2.78;;;8.90;99.90;;;;;;5019580;28;20030;-68
2024/01/05 09:29:13;;;;;;;7.25;2.20;;;9.00;99.90;;;;;;5020332;28;20048;-68
2024/01/05 09:31:44;;;;;;;7.57;2.70;;;9.00;99.90;;;;;;5020544;28;20092;-69
2024/01/05 09:34:09;;;;;;;8.90;3.10;;;9.00;99.90;;;;;;5019353;28;20022;-68
2024/01/05 09:36:41;;;;;;;5.85;2.20;;;9.00;99.90;;;;;;5019868;28;20022;-69
2024/01/05 09:39:09;;;;;;;8.80;2.25;;;9.00;99.90;;;;;;5019427;28;20025;-68
2024/01/05 09:41:34;;;;;;;10.60;3.10;;;9.10;99.90;;;;;;5020039;28;20022;-68
2024/01/05 09:44:02;;;;;;;7.88;2.75;;;9.00;99.90;;;;;;5019990;28;20032;-69
2024/01/05 09:46:28;;;;;;;3.75;2.38;;;8.80;99.90;;;;;;5019465;28;20120;-68
2024/01/05 09:48:57;;;;;;;7.22;2.33;;;9.00;99.90;;;;;;5019965;28;20034;-68
2024/01/05 09:51:23;;;;;;;12.07;2.20;;;9.00;99.90;;;;;;5020110;28;20018;-68
2024/01/05 09:53:49;;;;;;;6.60;1.88;;;9.00;99.90;;;;;;5019855;28;20081;-69
2024/01/05 09:56:15;;;;;;;10.55;2.75;;;9.10;99.90;;;;;;5019268;28;20113;-68
2024/01/05 09:58:43;;;;;;;7.80;2.20;;;9.20;99.90;;;;;;5018948;28;20021;-69
2024/01/05 10:01:21;;;;;;;10.95;1.80;;;9.20;99.90;;;;;;5018989;28;20026;-68
2024/01/05 10:03:47;;;;;;;11.00;3.47;;;9.20;99.90;;;;;;5019839;28;20076;-68
2024/01/05 10:06:15;;;;;;;8.88;2.22;;;9.20;99.90;;;;;;5019586;28;20112;-68
2024/01/05 10:08:41;;;;;;;10.30;2.58;;;9.20;99.90;;;;;;5018692;28;20021;-68
2024/01/05 10:11:07;;;;;;;11.10;2.75;;;9.10;99.90;;;;;;5019732;28;20105;-68
2024/01/05 10:13:32;;;;;;;5.70;1.90;;;9.20;99.90;;;;;;5019122;28;20040;-68
2024/01/05 10:16:00;;;;;;;9.48;2.58;;;9.00;99.90;;;;;;5018650;28;20030;-68
2024/01/05 10:18:30;;;;;;;9.75;2.33;;;8.90;99.90;;;;;;5018685;28;20025;-69
2024/01/05 10:20:58;;;;;;;6.72;1.80;;;9.00;99.90;;;;;;5019343;28;20030;-68
2024/01/05 10:23:24;;;;;;;6.97;2.20;;;9.00;99.90;;;;;;5018493;28;20030;-68
2024/01/05 10:25:51;;;;;;;9.35;2.20;;;9.00;99.90;;;;;;5019564;28;20076;-69
2024/01/05 10:28:32;;;;;;;8.45;2.13;;;9.00;99.90;;;;;;5019474;28;20025;-68
2024/01/05 10:31:14;;;;;;;10.63;2.17;;;9.00;99.90;;;;;;5018207;28;20030;-68
2024/01/05 10:33:50;;;;;;;;;;;9.00;99.90;;;;;;5018676;28;20025;-69
2024/01/05 10:36:26;;;;;;;7.63;2.08;;;9.00;99.90;;;;;;5019448;28;19906;-68
2024/01/05 10:38:52;;;;;;;9.63;3.03;;;8.90;99.90;;;;;;5019443;28;20018;-68
2024/01/05 10:41:20;;;;;;;5.03;2.13;;;8.80;99.90;;;;;;5018450;28;20032;-69
2024/01/05 10:43:47;;;;;;;9.25;2.28;;;8.90;99.90;;;;;;5019039;28;20050;-68
2024/01/05 10:46:15;;;;;;;9.20;2.08;;;8.90;99.90;;;;;;5019188;28;20037;-69
2024/01/05 10:48:42;;;;;;;6.65;2.05;;;8.90;99.90;;;;;;5018060;28;20021;-69
2024/01/05 10:51:11;;;;;;;6.45;2.25;;;8.80;99.90;;;;;;5018731;28;20030;-69
2024/01/05 10:53:37;;;;;;;7.45;2.40;;;8.80;99.90;;;;;;5018759;28;20041;-69
2024/01/05 10:56:06;;;;;;;7.00;2.45;;;8.80;99.90;;;;;;5019048;28;20025;-68
2024/01/05 10:58:31;;;;;;;9.82;2.65;;;8.80;99.90;;;;;;5018757;28;20026;-69
2024/01/05 11:01:00;;;;;;;6.82;2.00;;;8.90;99.90;;;;;;5019024;28;20029;-68
2024/01/05 11:03:31;;;;;;;8.38;2.70;;;9.00;99.90;;;;;;5017712;28;20026;-69
2024/01/05 11:05:57;;;;;;;7.85;2.42;;;9.00;99.90;;;;;;5018752;28;20026;-69
2024/01/05 11:08:29;;;;;;;7.90;1.73;;;9.00;99.90;;;;;;5018508;28;20042;-68
2024/01/05 11:11:05;;;;;;;5.55;2.10;;;9.00;99.90;;;;;;5017311;28;20048;-69
2024/01/05 11:13:44;;;;;;;8.05;2.13;;;9.00;99.90;;;;;;5017670;28;20026;-69
2024/01/05 11:16:37;;;;;;;9.05;2.00;;;8.90;99.90;;;;;;5018435;28;20041;-69
2024/01/05 11:19:12;;;;;;;5.53;2.20;;;8.90;99.90;;;;;;5017723;28;20034;-69
2024/01/05 11:21:46;;;;;;;7.18;2.38;;;8.80;99.90;;;;;;5018582;28;20029;-69
2024/01/05 11:24:13;;;;;;;7.38;2.28;;;8.90;99.90;;;;;;5018463;28;20029;-69
2024/01/05 11:26:41;;;;;;;7.50;2.00;;;8.90;99.90;;;;;;5017440;28;20045;-69
2024/01/05 11:29:12;;;;;;;8.63;2.78;;;9.00;99.90;;;;;;5018095;28;20026;-69
2024/01/05 11:31:58;;;;;;;2.47;1.57;;;9.10;99.90;;;;;;5018241;28;20021;-69
2024/01/05 11:34:37;;;;;;;8.23;2.15;;;9.10;99.90;;;;;;5017954;28;20037;-69
2024/01/05 11:37:08;;;;;;;11.07;2.10;;;9.20;99.90;;;;;;5018152;28;20100;-69
2024/01/05 11:39:49;;;;;;;9.18;1.88;;;9.20;99.90;;;;;;5018164;28;20027;-69
2024/01/05 11:42:35;;;;;;;5.68;1.90;;;9.20;99.90;;;;;;5016973;28;20071;-69
2024/01/05 11:45:11;;;;;;;6.18;1.42;;;9.30;99.90;;;;;;5018039;28;20033;-69
2024/01/05 11:47:43;;;;;;;5.82;1.40;;;9.40;99.90;;;;;;5018253;28;20026;-69
2024/01/05 11:50:31;;;;;;;6.03;1.55;;;9.50;99.90;;;;;;5017856;28;20060;-69
2024/01/05 11:53:13;;;;;;;4.00;1.10;;;9.60;99.90;;;;;;5016884;28;20034;-69
2024/01/05 11:55:45;;;;;;;;;;;9.70;99.90;;;;;;5018703;28;20026;-69
2024/01/05 11:58:16;;;;;;;6.97;1.20;;;9.70;99.90;;;;;;5017520;28;19913;-69
2024/01/05 12:00:44;;;;;;;6.70;1.90;;;9.80;99.90;;;;;;5017829;28;20034;-69
2024/01/05 12:03:10;;;;;;;4.88;1.25;;;9.90;99.90;;;;;;5017919;28;20057;-69
2024/01/05 12:05:38;;;;;;;4.78;1.42;;;9.90;99.90;;;;;;5017075;28;20030;-69
2024/01/05 12:08:11;;;;;;;3.45;1.23;;;9.90;99.90;;;;;;5017611;28;20026;-69
2024/01/05 12:10:38;;;;;;;6.57;1.33;;;9.90;99.90;;;;;;5017730;28;20065;-69
2024/01/05 12:13:03;;;;;;;5.68;1.20;;;10.00;99.90;;;;;;5017517;28;20018;-69
2024/01/05 12:15:29;;;;;;;8.65;1.70;;;10.10;99.90;;;;;;5016859;28;20128;-69
2024/01/05 12:18:07;;;;;;;4.32;1.05;;;10.10;99.90;;;;;;5016740;28;20052;-69
2024/01/05 12:20:36;;;;;;;5.03;1.20;;;10.10;99.90;;;;;;5017610;28;20026;-69
2024/01/05 12:23:02;;;;;;;7.78;2.00;;;10.10;99.90;;;;;;5016841;28;20080;-69
2024/01/05 12:25:28;;;;;;;6.63;1.25;;;10.00;99.90;;;;;;5017422;28;20021;-69
2024/01/05 12:27:54;;;;;;;5.55;2.05;;;9.90;99.90;;;;;;5016799;28;20026;-69
2024/01/05 12:30:21;;;;;;;5.82;1.42;;;9.90;99.90;;;;;;5017134;28;20080;-69
2024/01/05 12:32:47;;;;;;;4.50;1.10;;;9.90;99.90;;;;;;5017136;28;20030;-69
2024/01/05 12:35:13;;;;;;;6.68;1.60;;;9.90;99.90;;;;;;5017615;28;20026;-69
2024/01/05 12:37:52;;;;;;;4.40;1.40;;;9.90;99.90;;;;;;5017222;28;20026;-69
2024/01/05 12:40:23;;;;;;;2.80;1.25;;;9.90;99.90;;;;;;5017166;28;20026;-69
2024/01/05 12:42:49;;;;;;;2.33;1.05;;;10.00;99.90;;;;;;5019638;28;20037;-69
2024/01/05 12:45:16;;;;;;;4.68;1.63;;;10.00;99.90;;;;;;5021128;28;20022;-69
2024/01/05 12:47:41;;;;;;;4.32;1.35;;;10.00;99.90;;;;;;5021667;28;20026;-69
2024/01/05 12:50:22;;;;;;;11.32;1.70;;;10.00;99.90;;;;;;5020158;28;20036;-69
2024/01/05 12:52:49;;;;;;;3.95;1.45;;;10.00;99.90;;;;;;5021048;28;20048;-69